Time;durP1;ratioP1;P1;durP2;ratioP2;P2;SDS_P1;SDS_P2;PMS_P1;PMS_P2;Temp;Humidity;BMP_temperature;BMP_pressure;BME280_temperature;BME280_humidity;BME280_pressure;Samples;Min_cycle;Max_cycle;Signal;HPM_P1;HPM_P2
2022/06/04 00:00:34;;;;;;;1.50;0.90;;;16.30;99.90;;;;;;5075924;28;20190;-68
2022/06/04 00:03:02;;;;;;;2.20;0.93;;;16.20;99.90;;;;;;5075596;28;20175;-69
2022/06/04 00:05:32;;;;;;;1.40;1.07;;;16.50;99.90;;;;;;5075535;28;20173;-69
2022/06/04 00:08:01;;;;;;;4.70;1.17;;;16.10;99.90;;;;;;5075728;28;20234;-70
2022/06/04 00:16:04;;;;;;;1.47;0.70;;;16.40;99.90;;;;;;5075957;28;20704;-67
2022/06/04 00:18:32;;;;;;;2.27;0.90;;;16.70;99.90;;;;;;5072542;28;20226;-70
2022/06/04 00:21:00;;;;;;;1.73;0.80;;;16.70;99.90;;;;;;5075313;28;20169;-70
2022/06/04 00:23:27;;;;;;;1.43;0.80;;;17.60;99.90;;;;;;5075298;28;20224;-69
2022/06/04 00:25:58;;;;;;;1.53;0.70;;;17.60;99.90;;;;;;5073672;28;20339;-68
2022/06/04 00:28:27;;;;;;;0.97;0.50;;;17.10;99.90;;;;;;5075038;28;20186;-69
2022/06/04 00:30:57;;;;;;;1.47;0.70;;;17.20;99.90;;;;;;5074674;28;20246;-70
2022/06/04 00:33:25;;;;;;;1.33;0.67;;;17.20;99.90;;;;;;5074921;28;20687;-71
2022/06/04 00:35:56;;;;;;;2.00;0.90;;;17.60;99.90;;;;;;5074742;28;20176;-70
2022/06/04 00:38:26;;;;;;;1.60;0.93;;;17.90;99.90;;;;;;5075031;28;20598;-69
2022/06/04 00:41:20;;;;;;;0.97;0.80;;;17.50;99.90;;;;;;5074891;28;20190;-71
2022/06/04 00:44:02;;;;;;;3.57;1.00;;;17.60;99.90;;;;;;5074777;28;20630;-70
2022/06/04 00:46:42;;;;;;;0.87;0.50;;;17.30;99.90;;;;;;5074621;28;20178;-70
2022/06/04 00:49:18;;;;;;;2.37;0.90;;;17.50;99.90;;;;;;5074521;28;20200;-69
2022/06/04 00:51:49;;;;;;;2.80;0.50;;;17.30;99.90;;;;;;5074727;28;20171;-70
2022/06/04 00:54:17;;;;;;;1.07;0.50;;;17.60;99.90;;;;;;5074892;28;20217;-69
2022/06/04 00:57:13;;;;;;;1.07;0.47;;;18.10;99.90;;;;;;5074289;28;20180;-70
2022/06/04 01:00:15;;;;;;;4.47;0.70;;;18.20;99.90;;;;;;5074589;28;20222;-68
2022/06/04 01:02:53;;;;;;;1.77;0.70;;;18.80;99.90;;;;;;5074432;28;20174;-69
2022/06/04 01:05:26;;;;;;;1.37;0.60;;;18.50;99.90;;;;;;5072924;28;20546;-69
2022/06/04 01:08:18;;;;;;;2.70;0.50;;;18.40;99.90;;;;;;5074700;28;20176;-69
2022/06/04 01:10:56;;;;;;;0.40;0.40;;;17.90;99.90;;;;;;5074441;28;20310;-70
2022/06/04 01:13:43;;;;;;;3.07;1.70;;;17.60;99.90;;;;;;5074304;28;20602;-70
2022/06/04 01:16:20;;;;;;;6.10;2.00;;;18.00;99.90;;;;;;5074199;28;20247;-69
2022/06/04 01:19:06;;;;;;;3.57;0.60;;;17.90;99.90;;;;;;5073926;28;20221;-70
2022/06/04 01:21:46;;;;;;;1.57;0.60;;;17.90;99.90;;;;;;5074121;28;20176;-68
2022/06/04 01:24:16;;;;;;;3.73;1.90;;;18.30;99.90;;;;;;5074343;28;20561;-69
2022/06/04 01:26:59;;;;;;;1.30;1.00;;;19.00;99.90;;;;;;5073822;28;20186;-68
2022/06/04 01:29:39;;;;;;;9.50;8.10;;;19.20;99.90;;;;;;5073480;28;20206;-68
2022/06/04 01:32:28;;;;;;;1.67;0.93;;;19.30;99.90;;;;;;5074072;28;20250;-69
2022/06/04 01:35:08;;;;;;;3.37;2.27;;;18.70;99.90;;;;;;5072688;28;20660;-69
2022/06/04 01:37:38;;;;;;;22.87;15.20;;;18.70;99.90;;;;;;5073644;28;20209;-69
2022/06/04 01:42:59;;;;;;;9.10;6.03;;;19.30;99.90;;;;;;5073462;28;20260;-68
2022/06/04 01:45:28;;;;;;;1.63;0.97;;;19.00;99.90;;;;;;5073466;28;20656;-70
2022/06/04 01:47:59;;;;;;;2.23;1.83;;;18.50;99.90;;;;;;5073347;28;20295;-69
2022/06/04 01:50:39;;;;;;;3.20;1.70;;;18.70;99.90;;;;;;5073497;28;20674;-67
2022/06/04 01:53:09;;;;;;;4.43;4.03;;;18.80;99.90;;;;;;5073258;28;20649;-67
2022/06/04 01:56:07;;;;;;;2.27;1.77;;;18.50;99.90;;;;;;5073684;28;20176;-67
2022/06/04 01:58:58;;;;;;;0.87;0.67;;;19.30;99.90;;;;;;5069042;28;20193;-67
2022/06/04 02:01:30;;;;;;;1.33;0.70;;;19.60;99.90;;;;;;5073652;28;20174;-67
2022/06/04 02:04:11;;;;;;;1.07;0.60;;;18.90;99.90;;;;;;5073615;28;20589;-69
2022/06/04 02:07:29;;;;;;;1.87;0.53;;;19.10;99.90;;;;;;5073120;28;20636;-70
2022/06/04 02:09:35;;;;;;;1.53;0.70;;;18.80;99.90;;;;;;5072880;28;20203;-67
2022/06/04 02:12:05;;;;;;;1.73;0.80;;;19.00;99.90;;;;;;5071913;28;20191;-68
2022/06/04 02:14:32;;;;;;;1.00;0.57;;;19.30;99.90;;;;;;5073008;28;20172;-69
2022/06/04 02:17:09;;;;;;;1.00;0.80;;;19.60;99.90;;;;;;5072945;28;20175;-68
2022/06/04 02:19:36;;;;;;;1.23;0.80;;;19.80;99.90;;;;;;5072951;28;20274;-67
2022/06/04 02:22:04;;;;;;;1.23;0.60;;;20.10;99.90;;;;;;5072929;28;20659;-68
2022/06/04 02:24:31;;;;;;;0.53;0.43;;;20.70;99.90;;;;;;5073262;28;20222;-68
2022/06/04 02:27:01;;;;;;;1.80;0.40;;;20.50;99.90;;;;;;5071621;28;20180;-69
2022/06/04 02:29:28;;;;;;;1.53;0.70;;;19.70;99.90;;;;;;5072798;28;20628;-69
2022/06/04 02:32:08;;;;;;;0.60;0.40;;;19.80;99.90;;;;;;5072949;28;20267;-70
2022/06/04 02:34:46;;;;;;;0.93;0.47;;;19.50;99.90;;;;;;5073259;28;20195;-69
2022/06/04 02:37:32;;;;;;;1.17;0.43;;;20.30;99.90;;;;;;5073055;28;20193;-69
2022/06/04 02:40:12;;;;;;;2.23;0.80;;;20.90;99.90;;;;;;5072315;28;20657;-70
2022/06/04 02:43:05;;;;;;;1.90;0.67;;;20.30;99.90;;;;;;5072905;28;20236;-69
2022/06/04 02:45:34;;;;;;;1.83;0.77;;;20.50;99.90;;;;;;5072710;28;20548;-69
2022/06/04 02:48:24;;;;;;;1.53;0.60;;;20.30;99.90;;;;;;5072949;28;20168;-68
2022/06/04 02:51:01;;;;;;;1.73;0.50;;;20.40;98.60;;;;;;5072699;28;20250;-70
2022/06/04 02:53:32;;;;;;;4.03;0.70;;;20.20;99.90;;;;;;5072650;28;20170;-67
2022/06/04 02:56:14;;;;;;;2.33;0.70;;;20.00;99.90;;;;;;5073016;28;20215;-68
2022/06/04 02:58:44;;;;;;;1.23;0.40;;;19.90;99.90;;;;;;5072837;28;20253;-68
2022/06/04 03:01:12;;;;;;;2.63;0.60;;;20.40;99.90;;;;;;5072519;28;20634;-66
2022/06/04 03:03:40;;;;;;;2.27;0.77;;;20.20;99.90;;;;;;5072279;28;20259;-67
2022/06/04 03:06:19;;;;;;;0.93;0.60;;;20.80;99.90;;;;;;5070835;28;20211;-67
2022/06/04 03:08:47;;;;;;;4.33;0.50;;;20.60;98.70;;;;;;5070943;28;20180;-67
2022/06/04 03:11:15;;;;;;;1.13;0.50;;;21.00;99.90;;;;;;5072444;28;20253;-68
2022/06/04 03:13:42;;;;;;;3.53;0.50;;;20.90;97.60;;;;;;5072316;28;20660;-67
2022/06/04 03:16:11;;;;;;;1.40;0.40;;;20.90;99.90;;;;;;5073075;28;20218;-66
2022/06/04 03:18:38;;;;;;;1.37;0.40;;;21.70;99.90;;;;;;5072741;28;20218;-67
2022/06/04 03:21:06;;;;;;;1.17;0.43;;;22.30;99.90;;;;;;5072388;28;20708;-68
2022/06/04 03:23:33;;;;;;;0.47;0.30;;;21.90;98.30;;;;;;5072210;28;20262;-66
2022/06/04 03:26:00;;;;;;;2.57;0.40;;;21.50;97.40;;;;;;5072225;28;20279;-66
2022/06/04 03:28:28;;;;;;;1.27;0.40;;;21.10;98.70;;;;;;5072388;28;20174;-67
2022/06/04 03:30:55;;;;;;;2.47;1.10;;;21.20;99.50;;;;;;5072177;28;20215;-67
2022/06/04 03:33:23;;;;;;;1.27;0.60;;;21.00;97.80;;;;;;5072330;28;20607;-68
2022/06/04 03:35:50;;;;;;;2.53;0.60;;;21.00;99.40;;;;;;5072213;28;20180;-66
2022/06/04 03:38:18;;;;;;;3.93;0.60;;;21.00;99.50;;;;;;5072298;28;20168;-66
2022/06/04 03:40:45;;;;;;;1.03;0.50;;;20.60;99.90;;;;;;5072256;28;20188;-66
2022/06/04 03:43:13;;;;;;;0.67;0.50;;;20.50;99.90;;;;;;5072169;28;20206;-68
2022/06/04 03:45:40;;;;;;;2.83;0.40;;;20.30;99.90;;;;;;5072199;28;20168;-68
2022/06/04 03:48:08;;;;;;;0.97;0.60;;;20.80;99.90;;;;;;5070791;28;20557;-67
2022/06/04 03:50:35;;;;;;;2.07;0.43;;;20.50;99.90;;;;;;5070586;28;20219;-68
2022/06/04 03:53:02;;;;;;;3.73;1.40;;;20.30;99.90;;;;;;5074976;28;20168;-68
2022/06/04 03:55:30;;;;;;;1.17;0.80;;;20.40;99.90;;;;;;5075716;28;20641;-69
2022/06/04 03:57:57;;;;;;;1.30;0.80;;;20.60;99.90;;;;;;5075626;28;20175;-69
2022/06/04 04:00:31;;;;;;;1.67;0.70;;;20.10;99.90;;;;;;5075494;28;20246;-69
2022/06/04 04:03:02;;;;;;;1.47;0.50;;;20.30;99.90;;;;;;5075451;28;20211;-70
2022/06/04 04:05:33;;;;;;;2.83;1.50;;;20.10;99.90;;;;;;5075475;28;20210;-69
2022/06/04 04:08:02;;;;;;;1.60;0.80;;;20.20;99.90;;;;;;5075530;28;20176;-67
2022/06/04 04:10:30;;;;;;;1.50;0.97;;;19.70;99.90;;;;;;5075510;28;20215;-70
2022/06/04 04:12:58;;;;;;;2.57;0.70;;;20.20;99.90;;;;;;5075278;28;20268;-70
2022/06/04 04:15:27;;;;;;;2.17;0.80;;;20.50;99.90;;;;;;5074248;28;20183;-70
2022/06/04 04:17:54;;;;;;;1.60;0.90;;;20.80;99.90;;;;;;5075022;28;20727;-70
2022/06/04 04:20:25;;;;;;;2.23;1.13;;;20.60;99.90;;;;;;5074135;28;20180;-70
2022/06/04 04:22:53;;;;;;;3.83;3.13;;;20.10;99.90;;;;;;5076059;28;20233;-68
2022/06/04 04:25:23;;;;;;;2.40;1.00;;;20.10;99.90;;;;;;5082331;28;20207;-67
2022/06/04 04:27:53;;;;;;;1.50;1.30;;;20.30;99.90;;;;;;5084356;28;20175;-70
2022/06/04 04:30:24;;;;;;;1.97;1.10;;;20.60;99.90;;;;;;5079982;28;20249;-70
2022/06/04 04:32:54;;;;;;;1.93;1.53;;;20.80;99.90;;;;;;5075866;28;20176;-69
2022/06/04 04:35:24;;;;;;;2.83;1.50;;;21.00;99.90;;;;;;5073841;28;20187;-68
2022/06/04 04:37:53;;;;;;;1.47;0.60;;;20.70;99.90;;;;;;5073979;28;20670;-70
2022/06/04 04:40:23;;;;;;;1.03;0.60;;;20.40;99.90;;;;;;5074956;28;20174;-68
2022/06/04 04:42:52;;;;;;;0.50;0.50;;;19.40;99.90;;;;;;5074822;28;20659;-69
2022/06/04 04:45:23;;;;;;;3.17;0.63;;;19.40;99.90;;;;;;5074683;28;20188;-69
2022/06/04 04:47:52;;;;;;;3.30;0.87;;;18.80;99.90;;;;;;5075046;28;20185;-69
2022/06/04 04:50:21;;;;;;;2.30;0.60;;;18.20;99.90;;;;;;5073594;28;20220;-69
2022/06/04 04:52:49;;;;;;;2.10;0.60;;;17.90;99.90;;;;;;5074623;28;20232;-67
2022/06/04 04:55:17;;;;;;;1.90;0.50;;;17.50;99.90;;;;;;5074680;28;20176;-68
2022/06/04 04:57:44;;;;;;;1.33;0.67;;;17.90;99.90;;;;;;5074491;28;20541;-69
2022/06/04 05:00:12;;;;;;;2.47;0.50;;;18.60;99.90;;;;;;5074528;28;20255;-68
2022/06/04 05:02:40;;;;;;;1.20;0.70;;;18.70;99.90;;;;;;5074254;28;20641;-69
2022/06/04 05:05:08;;;;;;;1.63;0.80;;;18.70;99.90;;;;;;5073927;28;20206;-71
2022/06/04 05:07:35;;;;;;;3.20;1.10;;;18.80;99.90;;;;;;5074373;28;20184;-70
2022/06/04 05:10:03;;;;;;;0.93;0.60;;;19.00;99.90;;;;;;5073518;28;20224;-69
2022/06/04 05:12:30;;;;;;;2.70;0.60;;;18.90;99.90;;;;;;5074274;28;20637;-70
2022/06/04 05:14:58;;;;;;;1.30;0.60;;;19.00;99.90;;;;;;5074382;28;20262;-70
2022/06/04 05:17:25;;;;;;;0.70;0.50;;;18.80;99.90;;;;;;5073948;28;20250;-69
2022/06/04 05:19:53;;;;;;;1.70;0.40;;;18.60;99.90;;;;;;5073998;28;20165;-70
2022/06/04 05:22:20;;;;;;;1.03;0.43;;;18.70;99.90;;;;;;5073998;28;20668;-66
2022/06/04 05:24:48;;;;;;;0.90;0.50;;;18.70;99.90;;;;;;5074043;28;20659;-68
2022/06/04 05:27:15;;;;;;;2.83;0.67;;;18.20;99.90;;;;;;5072478;28;20645;-67
2022/06/04 05:29:44;;;;;;;1.30;0.60;;;17.70;99.90;;;;;;5072624;28;20242;-67
2022/06/04 05:32:12;;;;;;;2.20;1.03;;;17.50;99.90;;;;;;5073930;28;20168;-66
2022/06/04 05:34:39;;;;;;;0.77;0.50;;;17.50;99.90;;;;;;5072495;28;20274;-66
2022/06/04 05:37:07;;;;;;;2.13;0.60;;;17.30;99.90;;;;;;5072455;28;20208;-67
2022/06/04 05:39:35;;;;;;;0.50;0.50;;;17.00;99.90;;;;;;5073642;28;20175;-67
2022/06/04 05:42:04;;;;;;;0.77;0.50;;;16.90;99.90;;;;;;5073615;28;20184;-66
2022/06/04 05:44:31;;;;;;;0.40;0.40;;;16.70;99.90;;;;;;5073419;28;20528;-66
2022/06/04 05:46:59;;;;;;;0.80;0.40;;;16.50;99.90;;;;;;5073637;28;20637;-66
2022/06/04 05:49:26;;;;;;;0.60;0.60;;;16.40;99.90;;;;;;5073292;28;20246;-66
2022/06/04 05:51:54;;;;;;;1.73;0.60;;;16.40;99.90;;;;;;5073481;28;20313;-67
2022/06/04 05:54:21;;;;;;;1.50;0.70;;;16.30;99.90;;;;;;5073578;28;20176;-67
2022/06/04 05:56:51;;;;;;;1.10;0.60;;;16.10;99.90;;;;;;5073378;28;20168;-66
2022/06/04 05:59:21;;;;;;;0.50;0.50;;;16.00;99.90;;;;;;5073171;28;20251;-67
2022/06/04 06:01:49;;;;;;;0.90;0.50;;;15.90;99.90;;;;;;5073152;28;20313;-67
2022/06/04 06:04:19;;;;;;;0.40;0.40;;;15.90;99.90;;;;;;5073193;28;20531;-67
2022/06/04 06:06:49;;;;;;;3.00;0.70;;;15.90;99.90;;;;;;5073148;28;20172;-68
2022/06/04 06:09:18;;;;;;;1.03;0.60;;;15.80;99.90;;;;;;5073297;28;20314;-68
2022/06/04 06:11:46;;;;;;;0.90;0.60;;;15.70;99.90;;;;;;5073118;28;20177;-67
2022/06/04 06:14:14;;;;;;;1.03;0.80;;;15.60;99.90;;;;;;5073129;28;20238;-67
2022/06/04 06:16:44;;;;;;;2.97;0.90;;;15.60;99.90;;;;;;5072289;28;20176;-67
2022/06/04 06:19:14;;;;;;;0.60;0.60;;;15.50;99.90;;;;;;5069656;28;20224;-70
2022/06/04 06:21:43;;;;;;;1.33;0.80;;;15.40;99.90;;;;;;5071662;28;20298;-67
2022/06/04 06:24:12;;;;;;;1.63;0.80;;;15.30;99.90;;;;;;5072643;28;20263;-67
2022/06/04 06:26:52;;;;;;;1.50;0.70;;;15.20;99.90;;;;;;5072525;28;20175;-67
2022/06/04 06:29:28;;;;;;;1.13;0.60;;;15.10;99.90;;;;;;5075875;28;20237;-67
2022/06/04 06:32:00;;;;;;;1.33;0.90;;;15.00;99.90;;;;;;5068493;28;20275;-67
2022/06/04 06:34:28;;;;;;;2.60;0.90;;;14.90;99.90;;;;;;5070987;28;20190;-68
2022/06/04 06:36:56;;;;;;;1.97;0.93;;;14.70;99.90;;;;;;5070829;28;20229;-67
2022/06/04 06:39:24;;;;;;;3.00;1.37;;;14.60;99.90;;;;;;5070995;28;20553;-67
2022/06/04 06:41:51;;;;;;;2.50;1.03;;;14.60;99.90;;;;;;5070292;28;20197;-67
2022/06/04 06:44:19;;;;;;;1.23;1.00;;;14.50;99.90;;;;;;5071568;28;20558;-67
2022/06/04 06:46:48;;;;;;;1.10;0.80;;;14.40;99.90;;;;;;5071413;28;20193;-67
2022/06/04 06:49:19;;;;;;;5.47;3.53;;;14.30;99.90;;;;;;5071501;28;20237;-67
2022/06/04 06:51:54;;;;;;;1.50;0.90;;;14.20;99.90;;;;;;5070987;28;20199;-67
2022/06/04 06:54:25;;;;;;;1.87;1.30;;;14.20;99.90;;;;;;5071315;28;20647;-66
2022/06/04 06:56:53;;;;;;;4.87;2.60;;;14.10;99.90;;;;;;5071427;28;20188;-68
2022/06/04 06:59:23;;;;;;;4.10;2.50;;;14.10;99.90;;;;;;5071503;28;20266;-67
2022/06/04 07:01:51;;;;;;;4.33;3.07;;;13.90;99.90;;;;;;5071193;28;20215;-68
2022/06/04 07:04:21;;;;;;;3.73;2.07;;;13.90;99.90;;;;;;5070963;28;20257;-67
2022/06/04 07:06:54;;;;;;;3.47;2.13;;;13.80;99.90;;;;;;5071119;28;20183;-66
2022/06/04 07:09:27;;;;;;;8.87;3.70;;;13.70;99.90;;;;;;5070714;28;20219;-67
2022/06/04 07:11:56;;;;;;;5.20;3.27;;;13.70;99.90;;;;;;5071020;28;20192;-67
2022/06/04 07:14:24;;;;;;;8.63;5.40;;;13.60;99.90;;;;;;5071164;28;20679;-67
2022/06/04 07:16:53;;;;;;;40.17;30.10;;;13.50;99.90;;;;;;5070885;28;20175;-67
2022/06/04 07:19:22;;;;;;;25.60;20.50;;;13.30;99.90;;;;;;5070991;28;20218;-67
2022/06/04 07:21:52;;;;;;;11.93;4.83;;;13.30;99.90;;;;;;5070852;28;20267;-67
2022/06/04 07:24:20;;;;;;;5.87;4.20;;;13.30;99.90;;;;;;5071094;28;20175;-67
2022/06/04 07:26:48;;;;;;;5.20;2.93;;;13.20;99.90;;;;;;5070783;28;20416;-68
2022/06/04 07:29:15;;;;;;;6.07;3.27;;;13.20;99.90;;;;;;5073676;28;20233;-67
2022/06/04 07:31:42;;;;;;;6.03;2.90;;;13.10;99.90;;;;;;5074567;28;20187;-66
2022/06/04 07:34:10;;;;;;;10.87;3.00;;;13.00;99.90;;;;;;5073986;28;20188;-67
2022/06/04 07:36:44;;;;;;;6.17;2.77;;;13.00;99.90;;;;;;5074017;28;20226;-67
2022/06/04 07:39:14;;;;;;;4.53;1.80;;;12.90;99.90;;;;;;5072621;28;20175;-67
2022/06/04 07:41:44;;;;;;;5.33;1.90;;;13.00;99.90;;;;;;5074191;28;20689;-67
2022/06/04 07:44:14;;;;;;;3.70;1.60;;;13.10;99.90;;;;;;5074178;28;20657;-66
2022/06/04 07:46:42;;;;;;;3.40;1.70;;;13.00;99.90;;;;;;5073349;28;20193;-68
2022/06/04 07:49:11;;;;;;;3.23;1.87;;;13.10;99.90;;;;;;5073663;28;20236;-67
2022/06/04 07:51:40;;;;;;;6.37;2.33;;;13.00;99.90;;;;;;5074003;28;20197;-67
2022/06/04 07:54:08;;;;;;;4.50;2.57;;;13.00;99.90;;;;;;5073945;28;20171;-67
2022/06/04 07:56:37;;;;;;;5.73;2.50;;;12.90;99.90;;;;;;5072658;28;20644;-66
2022/06/04 07:59:06;;;;;;;4.47;2.40;;;12.90;99.90;;;;;;5073662;28;20182;-66
2022/06/04 08:01:34;;;;;;;8.07;2.87;;;12.90;99.90;;;;;;5073606;28;20200;-67
2022/06/04 08:04:01;;;;;;;7.00;3.60;;;12.80;99.90;;;;;;5074194;28;20232;-67
2022/06/04 08:06:31;;;;;;;6.27;3.03;;;12.70;99.90;;;;;;5073310;28;20197;-68
2022/06/04 08:08:59;;;;;;;7.70;3.63;;;12.70;99.90;;;;;;5074240;28;20175;-67
2022/06/04 08:11:38;;;;;;;7.60;3.30;;;12.60;99.90;;;;;;5074241;28;20560;-67
2022/06/04 08:14:13;;;;;;;15.13;8.30;;;12.50;99.90;;;;;;5074309;28;20181;-68
2022/06/04 08:16:46;;;;;;;9.53;4.90;;;12.50;99.90;;;;;;5074060;28;20276;-68
2022/06/04 08:19:14;;;;;;;587.43;296.03;;;12.50;99.90;;;;;;5073415;28;20263;-67
2022/06/04 08:21:42;;;;;;;53.90;30.70;;;12.40;99.90;;;;;;5074085;28;20638;-67
2022/06/04 08:24:11;;;;;;;23.50;11.47;;;12.40;99.90;;;;;;5074265;28;20211;-68
2022/06/04 08:26:40;;;;;;;47.67;24.90;;;12.40;99.90;;;;;;5072646;28;20217;-67
2022/06/04 08:29:08;;;;;;;8.37;4.00;;;12.30;99.90;;;;;;5075124;28;20255;-68
2022/06/04 08:31:35;;;;;;;7.30;4.10;;;12.20;99.90;;;;;;5073798;28;20276;-67
2022/06/04 08:34:03;;;;;;;7.97;3.47;;;12.20;99.90;;;;;;5073745;28;20216;-68
2022/06/04 08:36:31;;;;;;;7.10;3.90;;;12.30;99.90;;;;;;5073483;28;20186;-67
2022/06/04 08:38:58;;;;;;;4.73;2.00;;;12.40;99.90;;;;;;5071459;28;20172;-68
2022/06/04 08:41:35;;;;;;;7.80;3.10;;;12.50;99.90;;;;;;5073754;28;20209;-68
2022/06/04 08:44:13;;;;;;;4.10;2.60;;;12.50;99.90;;;;;;5072883;28;20181;-67
2022/06/04 08:46:54;;;;;;;5.20;3.13;;;12.60;99.90;;;;;;5072993;28;20227;-67
2022/06/04 08:49:32;;;;;;;5.17;2.30;;;12.50;99.90;;;;;;5071939;28;20210;-66
2022/06/04 08:52:03;;;;;;;4.77;2.83;;;12.40;99.90;;;;;;5073039;28;20192;-67
2022/06/04 08:57:35;;;;;;;6.77;3.97;;;12.20;99.90;;;;;;5072008;28;20299;-68
2022/06/04 09:00:07;;;;;;;6.23;3.80;;;12.20;99.90;;;;;;5072160;28;20283;-67
2022/06/04 09:02:58;;;;;;;5.70;3.50;;;12.10;99.90;;;;;;5071995;28;20189;-67
2022/06/04 09:05:57;;;;;;;7.83;4.20;;;12.00;99.90;;;;;;5072992;28;20587;-67
2022/06/04 09:08:47;;;;;;;6.47;3.70;;;12.00;99.90;;;;;;5071762;28;20276;-67
2022/06/04 09:11:29;;;;;;;6.63;3.30;;;12.00;99.90;;;;;;5072297;28;20217;-67
2022/06/04 09:14:06;;;;;;;6.63;4.00;;;12.00;99.90;;;;;;5072075;28;20186;-67
2022/06/04 09:16:37;;;;;;;11.57;5.03;;;12.10;99.90;;;;;;5070993;28;20553;-68
2022/06/04 09:19:16;;;;;;;7.83;4.70;;;12.10;99.90;;;;;;5069535;28;20232;-68
2022/06/04 09:21:45;;;;;;;6.47;3.30;;;12.10;99.90;;;;;;5072095;28;20221;-66
2022/06/04 09:24:13;;;;;;;5.97;3.30;;;12.10;99.90;;;;;;5070936;28;20184;-67
2022/06/04 09:26:56;;;;;;;4.63;2.90;;;12.00;99.90;;;;;;5072306;28;20234;-69
2022/06/04 09:29:35;;;;;;;7.90;3.73;;;12.10;99.90;;;;;;5069236;28;20206;-66
2022/06/04 09:32:06;;;;;;;7.37;3.20;;;12.10;99.90;;;;;;5093232;28;20191;-67
2022/06/04 09:34:50;;;;;;;6.37;3.43;;;12.20;99.90;;;;;;5071752;28;20781;-67
2022/06/04 09:37:18;;;;;;;6.60;4.53;;;12.20;99.90;;;;;;5070860;28;20311;-67
2022/06/04 09:40:02;;;;;;;6.70;4.67;;;12.20;99.90;;;;;;5072074;28;20209;-66
2022/06/04 09:42:32;;;;;;;8.30;4.40;;;12.20;99.90;;;;;;5072566;28;20174;-67
2022/06/04 09:45:05;;;;;;;8.93;4.87;;;12.10;99.90;;;;;;5078986;28;20231;-68
2022/06/04 09:47:42;;;;;;;10.77;4.83;;;12.10;99.90;;;;;;5082456;28;20183;-69
2022/06/04 09:50:32;;;;;;;6.70;4.13;;;12.00;99.90;;;;;;5076875;28;20215;-68
2022/06/04 09:53:03;;;;;;;7.37;4.30;;;11.80;99.90;;;;;;5074175;28;20181;-68
2022/06/04 09:55:33;;;;;;;8.07;4.23;;;11.70;99.90;;;;;;5074074;28;20274;-68
2022/06/04 09:58:37;;;;;;;4.70;3.60;;;11.50;99.90;;;;;;5073776;28;20177;-69
2022/06/04 10:01:07;;;;;;;7.97;5.13;;;11.40;99.90;;;;;;5068487;28;20288;-69
2022/06/04 10:03:38;;;;;;;10.70;5.33;;;11.40;99.90;;;;;;5073605;28;20180;-69
2022/06/04 10:06:15;;;;;;;11.93;6.47;;;11.40;99.90;;;;;;5073452;28;20176;-69
2022/06/04 10:11:57;;;;;;;6.90;3.97;;;11.30;99.90;;;;;;5073777;28;20783;-69
2022/06/04 10:14:44;;;;;;;5.73;3.73;;;11.20;99.90;;;;;;5073382;28;20186;-68
2022/06/04 10:17:20;;;;;;;6.73;4.27;;;11.20;99.90;;;;;;5073241;28;20555;-68
2022/06/04 10:19:57;;;;;;;8.87;6.53;;;11.20;99.90;;;;;;5073104;28;20183;-68
2022/06/04 10:22:24;;;;;;;5.87;3.77;;;11.20;99.90;;;;;;5074107;28;20183;-68
2022/06/04 10:24:57;;;;;;;28.63;16.53;;;11.10;99.90;;;;;;5073460;28;20180;-68
2022/06/04 10:27:41;;;;;;;15.87;9.93;;;10.90;99.90;;;;;;5073494;28;20697;-68
2022/06/04 10:30:43;;;;;;;11.90;7.13;;;10.90;99.90;;;;;;5072897;28;20208;-68
2022/06/04 10:33:51;;;;;;;8.40;4.80;;;10.80;99.90;;;;;;5073169;28;20175;-69
2022/06/04 10:36:39;;;;;;;6.87;4.23;;;10.80;99.90;;;;;;5072327;28;20666;-68
2022/06/04 10:39:15;;;;;;;6.67;3.53;;;10.90;99.90;;;;;;5073223;28;20197;-67
2022/06/04 10:41:58;;;;;;;8.63;3.20;;;10.90;99.90;;;;;;5072953;28;20184;-68
2022/06/04 10:44:37;;;;;;;4.97;3.20;;;10.90;99.90;;;;;;5072533;28;20218;-68
2022/06/04 10:47:22;;;;;;;5.00;2.80;;;10.80;99.90;;;;;;5070576;28;20231;-68
2022/06/04 10:50:06;;;;;;;7.07;3.07;;;10.90;99.90;;;;;;5068811;28;20209;-68
2022/06/04 10:52:39;;;;;;;5.93;3.13;;;10.90;99.90;;;;;;5071891;28;20595;-68
2022/06/04 10:55:18;;;;;;;11.27;3.47;;;11.00;99.90;;;;;;5072353;28;20183;-68
2022/06/04 10:57:57;;;;;;;5.10;3.23;;;11.10;99.90;;;;;;5070745;28;20185;-68
2022/06/04 11:00:32;;;;;;;9.43;4.87;;;11.10;99.90;;;;;;5070667;28;20174;-69
2022/06/04 11:03:05;;;;;;;5.27;3.60;;;11.10;99.90;;;;;;5097042;28;20176;-67
2022/06/04 11:05:38;;;;;;;5.80;3.10;;;11.10;99.90;;;;;;5076275;28;20236;-69
2022/06/04 11:08:11;;;;;;;7.03;3.53;;;11.10;99.90;;;;;;5076483;28;20189;-67
2022/06/04 11:10:49;;;;;;;7.40;3.40;;;11.00;99.90;;;;;;5077107;28;20304;-69
2022/06/04 11:13:33;;;;;;;6.73;3.57;;;10.90;99.90;;;;;;5074944;28;20214;-68
2022/06/04 11:16:01;;;;;;;10.73;6.00;;;10.70;99.90;;;;;;5076788;28;20224;-69
2022/06/04 11:18:43;;;;;;;5.43;3.37;;;10.80;99.90;;;;;;5076327;28;20220;-68
2022/06/04 11:21:34;;;;;;;5.37;3.00;;;10.70;99.90;;;;;;5076549;28;20181;-68
2022/06/04 11:24:18;;;;;;;8.23;5.23;;;10.60;99.90;;;;;;5076458;28;20193;-68
2022/06/04 11:27:00;;;;;;;11.97;4.83;;;10.50;99.90;;;;;;5076172;28;20165;-69
2022/06/04 11:29:27;;;;;;;5.07;3.07;;;10.30;99.90;;;;;;5076364;28;20661;-67
2022/06/04 11:32:08;;;;;;;6.43;3.90;;;10.40;99.90;;;;;;5076407;28;20189;-69
2022/06/04 11:35:12;;;;;;;6.13;2.90;;;10.40;99.90;;;;;;5076496;28;20171;-69
2022/06/04 11:37:49;;;;;;;7.40;3.10;;;10.40;99.90;;;;;;5074868;28;20271;-68
2022/06/04 11:40:44;;;;;;;6.03;3.90;;;10.30;99.90;;;;;;5076269;28;20200;-68
2022/06/04 11:43:33;;;;;;;5.00;3.20;;;10.20;99.90;;;;;;5075426;28;20527;-67
2022/06/04 11:46:16;;;;;;;8.83;3.87;;;10.20;99.90;;;;;;5076213;28;20235;-68
2022/06/04 11:49:01;;;;;;;9.63;4.03;;;10.20;99.90;;;;;;5075985;28;20654;-68
2022/06/04 11:51:37;;;;;;;7.40;3.83;;;10.20;99.90;;;;;;5076150;28;20341;-69
2022/06/04 11:54:22;;;;;;;20.10;10.10;;;10.10;99.90;;;;;;5075818;28;20169;-69
2022/06/04 11:57:04;;;;;;;7.17;4.13;;;10.00;99.90;;;;;;5074512;28;20183;-69
2022/06/04 11:59:56;;;;;;;6.60;3.70;;;9.90;99.90;;;;;;5076251;28;20662;-69
2022/06/04 12:03:01;;;;;;;4.90;4.00;;;9.90;99.90;;;;;;5075627;28;20185;-69
2022/06/04 12:06:01;;;;;;;6.67;3.53;;;10.00;99.90;;;;;;5075801;28;20180;-69
2022/06/04 12:08:37;;;;;;;4.87;3.00;;;10.00;99.90;;;;;;5075450;28;20180;-69
2022/06/04 12:11:26;;;;;;;5.70;3.17;;;10.00;99.90;;;;;;5075760;28;20545;-69
2022/06/04 12:14:13;;;;;;;4.70;2.67;;;9.90;99.90;;;;;;5075714;28;20169;-68
2022/06/04 12:17:02;;;;;;;4.20;2.53;;;9.90;99.90;;;;;;5074306;28;20184;-68
2022/06/04 12:25:42;;;;;;;3.97;2.47;;;9.70;99.90;;;;;;5075796;28;20318;-69
2022/06/04 12:28:32;;;;;;;7.00;4.67;;;9.70;99.90;;;;;;5075314;28;20665;-69
2022/06/04 12:31:00;;;;;;;9.13;4.23;;;9.60;99.90;;;;;;5074225;28;20222;-67
2022/06/04 12:33:42;;;;;;;9.27;4.73;;;9.50;99.90;;;;;;5081250;28;20310;-67
2022/06/04 12:36:12;;;;;;;5.00;2.87;;;9.30;99.90;;;;;;5081413;28;20181;-67
2022/06/04 12:38:45;;;;;;;5.90;2.83;;;9.30;99.90;;;;;;5077792;28;20549;-67
2022/06/04 12:41:19;;;;;;;4.63;2.77;;;9.50;99.90;;;;;;5075284;28;20176;-68
2022/06/04 12:43:55;;;;;;;5.03;2.53;;;9.40;99.90;;;;;;5075180;28;20177;-69
2022/06/04 12:46:23;;;;;;;4.23;2.30;;;9.50;99.90;;;;;;5074917;28;20280;-67
2022/06/04 12:49:12;;;;;;;2.77;2.40;;;9.70;99.90;;;;;;5075004;28;20183;-68
2022/06/04 12:51:42;;;;;;;4.20;2.37;;;9.70;99.90;;;;;;5074504;28;20193;-68
2022/06/04 12:54:37;;;;;;;4.43;2.30;;;9.70;99.90;;;;;;5074671;28;20175;-68
2022/06/04 12:57:44;;;;;;;3.90;2.57;;;9.60;99.90;;;;;;5074765;28;20178;-68
2022/06/04 13:00:35;;;;;;;4.23;2.90;;;9.50;99.90;;;;;;5074519;28;20269;-68
2022/06/04 13:03:08;;;;;;;4.97;2.70;;;9.70;99.90;;;;;;5075013;28;20178;-67
2022/06/04 13:05:59;;;;;;;5.73;2.60;;;9.70;99.90;;;;;;5074503;28;20176;-67
2022/06/04 13:08:50;;;;;;;7.20;3.10;;;9.70;99.90;;;;;;5074553;28;20180;-68
2022/06/04 13:11:49;;;;;;;4.50;3.00;;;9.70;99.90;;;;;;5074705;28;20207;-67
2022/06/04 13:14:26;;;;;;;6.00;3.20;;;9.60;99.90;;;;;;5058355;28;20276;-68
2022/06/04 13:16:57;;;;;;;6.20;3.20;;;9.60;99.90;;;;;;5073110;28;20258;-68
2022/06/04 13:19:33;;;;;;;5.97;3.90;;;9.60;99.90;;;;;;5072764;28;20707;-68
2022/06/04 13:22:03;;;;;;;6.50;3.33;;;9.60;99.90;;;;;;5074565;28;20181;-68
2022/06/04 13:24:36;;;;;;;4.17;2.80;;;9.70;99.90;;;;;;5072410;28;20184;-68
2022/06/04 13:27:12;;;;;;;5.37;2.80;;;9.70;99.90;;;;;;5073262;28;20663;-68
2022/06/04 13:29:40;;;;;;;6.07;3.10;;;9.80;99.90;;;;;;5074093;28;20205;-68
2022/06/04 13:32:20;;;;;;;4.80;2.80;;;9.80;99.90;;;;;;5073801;28;20190;-67
2022/06/04 13:34:49;;;;;;;5.07;3.33;;;9.70;99.90;;;;;;5074429;28;20191;-68
2022/06/04 13:37:21;;;;;;;5.40;2.80;;;9.50;99.90;;;;;;5073782;28;20179;-68
2022/06/04 13:39:51;;;;;;;4.47;2.70;;;9.40;99.90;;;;;;5074219;28;20175;-68
2022/06/04 13:42:32;;;;;;;4.73;2.63;;;9.50;99.90;;;;;;5072377;28;20187;-68
2022/06/04 13:45:20;;;;;;;4.37;2.57;;;9.30;99.90;;;;;;5073755;28;20186;-68